Time;durP1;ratioP1;P1;durP2;ratioP2;P2;SDS_P1;SDS_P2;PMS_P1;PMS_P2;Temp;Humidity;BMP_temperature;BMP_pressure;BME280_temperature;BME280_humidity;BME280_pressure;Samples;Min_cycle;Max_cycle;Signal;HPM_P1;HPM_P2
2024/04/04 00:00:28;;;;;;;0.80;0.80;;;13.50;99.90;;;;;;10396366;28;20240;-73
2024/04/04 00:05:30;;;;;;;0.60;0.60;;;13.50;99.90;;;;;;10414255;28;20206;-74
2024/04/04 00:10:34;;;;;;;0.50;0.50;;;13.50;99.90;;;;;;10414500;28;20202;-73
2024/04/04 00:15:39;;;;;;;0.60;0.60;;;13.50;99.90;;;;;;10413991;28;20531;-76
2024/04/04 00:20:41;;;;;;;0.50;0.50;;;13.50;99.90;;;;;;10413935;28;20214;-76
2024/04/04 00:25:45;;;;;;;0.50;0.50;;;13.50;99.90;;;;;;10413687;28;20585;-76
2024/04/04 00:30:47;;;;;;;0.50;0.50;;;13.60;99.90;;;;;;10408788;28;20242;-76
2024/04/04 00:35:50;;;;;;;0.50;0.50;;;13.60;99.90;;;;;;10413536;28;20210;-75
2024/04/04 00:40:53;;;;;;;0.60;0.60;;;13.50;99.90;;;;;;10413570;28;20703;-75
2024/04/04 00:45:56;;;;;;;0.50;0.50;;;13.50;99.90;;;;;;10412992;28;20300;-76
2024/04/04 00:50:59;;;;;;;0.50;0.50;;;13.40;99.90;;;;;;10413223;28;20194;-76
2024/04/04 00:56:04;;;;;;;0.50;0.50;;;13.30;99.90;;;;;;10411267;28;20751;-77
2024/04/04 01:01:06;;;;;;;0.60;0.60;;;13.20;99.90;;;;;;10408370;28;20228;-76
2024/04/04 01:06:08;;;;;;;0.70;0.70;;;13.20;99.90;;;;;;10410333;28;20222;-77
2024/04/04 01:11:12;;;;;;;0.60;0.60;;;13.10;99.90;;;;;;10412530;28;20729;-76
2024/04/04 01:16:14;;;;;;;0.60;0.60;;;13.00;99.90;;;;;;10411853;28;20229;-76
2024/04/04 01:21:18;;;;;;;0.50;0.50;;;13.00;99.90;;;;;;10411761;28;20664;-76
2024/04/04 01:26:21;;;;;;;0.60;0.60;;;13.10;99.90;;;;;;10411798;28;20233;-76
2024/04/04 01:31:24;;;;;;;0.60;0.60;;;13.00;99.90;;;;;;10406817;28;20846;-76
2024/04/04 01:36:26;;;;;;;0.50;0.50;;;13.00;99.90;;;;;;10393391;28;20222;-76
2024/04/04 01:41:30;;;;;;;0.50;0.50;;;12.90;99.90;;;;;;10411181;28;20297;-76
2024/04/04 01:46:32;;;;;;;0.50;0.50;;;12.90;99.90;;;;;;10392696;28;20214;-77
2024/04/04 01:51:35;;;;;;;0.50;0.50;;;13.00;99.90;;;;;;10410443;28;20186;-76
2024/04/04 01:56:39;;;;;;;0.90;0.90;;;13.00;99.90;;;;;;10410351;28;20769;-76
2024/04/04 02:01:41;;;;;;;0.80;0.80;;;13.10;99.90;;;;;;10410381;28;20753;-77
2024/04/04 02:06:43;;;;;;;0.90;0.90;;;13.10;99.90;;;;;;10409515;28;20276;-76
2024/04/04 02:11:47;;;;;;;0.80;0.80;;;13.20;99.90;;;;;;10409968;28;20663;-76
2024/04/04 02:16:49;;;;;;;0.70;0.70;;;13.30;99.90;;;;;;10391645;28;20640;-76
2024/04/04 02:21:52;;;;;;;0.70;0.70;;;13.30;99.90;;;;;;10409480;28;20572;-76
2024/04/04 02:26:56;;;;;;;0.80;0.80;;;13.40;99.90;;;;;;10391233;28;20292;-78
2024/04/04 02:31:58;;;;;;;0.80;0.80;;;13.40;99.90;;;;;;10417297;28;20709;-78
2024/04/04 02:37:00;;;;;;;0.70;0.70;;;13.40;99.90;;;;;;10429056;28;20213;-77
2024/04/04 02:42:04;;;;;;;0.80;0.80;;;13.40;99.90;;;;;;10411853;28;20734;-76
2024/04/04 02:47:07;;;;;;;0.90;0.90;;;13.40;99.90;;;;;;10422525;28;20213;-76
2024/04/04 02:52:09;;;;;;;0.70;0.70;;;13.30;99.90;;;;;;10427612;28;20192;-76
2024/04/04 02:57:13;;;;;;;0.90;0.90;;;13.30;99.90;;;;;;10427137;28;20225;-76
2024/04/04 03:02:15;;;;;;;0.80;0.80;;;13.30;99.90;;;;;;10428880;28;20715;-75
2024/04/04 03:07:18;;;;;;;0.90;0.90;;;13.40;99.90;;;;;;10406184;28;20216;-75
2024/04/04 03:12:22;;;;;;;0.93;0.93;;;13.40;99.90;;;;;;10424793;28;20190;-76
2024/04/04 03:17:24;;;;;;;1.10;1.10;;;13.40;99.90;;;;;;10407743;28;20229;-76
2024/04/04 03:22:26;;;;;;;0.80;0.80;;;13.50;99.90;;;;;;10408003;28;20284;-75
2024/04/04 03:27:30;;;;;;;0.60;0.60;;;13.40;99.90;;;;;;10407881;28;20649;-76
2024/04/04 03:32:32;;;;;;;1.00;1.00;;;13.40;99.90;;;;;;10407957;28;20248;-76
2024/04/04 03:37:35;;;;;;;1.00;1.00;;;13.30;99.90;;;;;;10407381;28;20218;-76
2024/04/04 03:42:38;;;;;;;1.10;1.10;;;13.30;99.90;;;;;;10385558;28;20267;-75
2024/04/04 03:47:41;;;;;;;0.90;0.90;;;13.20;99.90;;;;;;10406609;28;20214;-77
2024/04/04 03:52:43;;;;;;;0.80;0.80;;;13.20;99.90;;;;;;10384701;28;20218;-76
2024/04/04 03:57:47;;;;;;;1.20;1.20;;;13.20;99.90;;;;;;10407224;28;20607;-76
2024/04/04 04:02:49;;;;;;;1.00;1.00;;;13.10;99.90;;;;;;10407197;28;20210;-76
2024/04/04 04:07:51;;;;;;;1.17;1.17;;;13.10;99.90;;;;;;10409572;28;20225;-76
2024/04/04 04:12:55;;;;;;;1.10;1.10;;;13.10;99.90;;;;;;10414325;28;20183;-76
2024/04/04 04:17:58;;;;;;;1.10;1.10;;;13.10;99.90;;;;;;10413958;28;20635;-76
2024/04/04 04:23:00;;;;;;;1.10;1.10;;;13.10;99.90;;;;;;10413915;28;20287;-74
2024/04/04 04:28:04;;;;;;;1.00;1.00;;;13.10;99.90;;;;;;10412864;28;20217;-76
2024/04/04 04:33:07;;;;;;;1.10;1.10;;;13.10;99.90;;;;;;10412879;28;20604;-77
2024/04/04 04:38:09;;;;;;;0.80;0.80;;;13.10;99.90;;;;;;10410724;28;20522;-76
2024/04/04 04:43:13;;;;;;;0.80;0.80;;;13.00;99.90;;;;;;10395617;28;20591;-76
2024/04/04 04:48:15;;;;;;;1.10;1.10;;;13.00;99.90;;;;;;10412503;28;20217;-76
2024/04/04 04:53:17;;;;;;;1.10;1.10;;;13.00;99.90;;;;;;10407849;28;20769;-76
2024/04/04 04:58:21;;;;;;;0.70;0.70;;;12.90;99.90;;;;;;10412639;28;20224;-76
2024/04/04 05:03:25;;;;;;;1.00;1.00;;;13.00;99.90;;;;;;10412511;28;20218;-73
2024/04/04 05:08:27;;;;;;;0.40;0.40;;;12.90;99.90;;;;;;10412278;28;20233;-76
2024/04/04 05:13:31;;;;;;;0.80;0.80;;;13.00;99.90;;;;;;10412466;28;20194;-75
2024/04/04 05:18:33;;;;;;;0.80;0.80;;;13.00;99.90;;;;;;10411085;28;20640;-76
2024/04/04 05:23:35;;;;;;;0.90;0.90;;;13.00;99.90;;;;;;10411840;28;20222;-75
2024/04/04 05:28:41;;;;;;;0.80;0.80;;;13.00;99.90;;;;;;10411417;28;20222;-75
2024/04/04 05:33:43;;;;;;;0.80;0.80;;;13.10;99.90;;;;;;10410930;28;20603;-75
2024/04/04 05:38:45;;;;;;;0.70;0.70;;;13.10;99.90;;;;;;10410645;28;20217;-75
2024/04/04 05:43:49;;;;;;;1.00;1.00;;;13.20;99.90;;;;;;10410934;28;20566;-76
2024/04/04 05:48:51;;;;;;;1.00;1.00;;;13.20;99.90;;;;;;10410753;28;20297;-76
2024/04/04 05:53:53;;;;;;;0.90;0.90;;;13.40;99.90;;;;;;10410409;28;20617;-76
2024/04/04 05:58:57;;;;;;;0.80;0.80;;;13.40;99.90;;;;;;10410049;28;20222;-76
2024/04/04 06:04:00;;;;;;;1.10;1.10;;;13.40;99.90;;;;;;10410076;28;20226;-77
2024/04/04 06:09:02;;;;;;;0.90;0.90;;;13.40;99.90;;;;;;10409420;28;20225;-76
2024/04/04 06:14:06;;;;;;;0.80;0.80;;;13.50;99.90;;;;;;10410154;28;20236;-75
2024/04/04 06:19:08;;;;;;;0.70;0.70;;;13.70;99.90;;;;;;10392176;28;20206;-75
2024/04/04 06:24:10;;;;;;;0.80;0.80;;;13.90;99.90;;;;;;10409740;28;20225;-76
2024/04/04 06:29:14;;;;;;;0.80;0.80;;;14.00;99.90;;;;;;10409178;28;20828;-76
2024/04/04 06:34:17;;;;;;;0.73;0.73;;;14.10;99.90;;;;;;10409370;28;20193;-76
2024/04/04 06:39:20;;;;;;;1.00;1.00;;;14.20;99.90;;;;;;10409048;28;20647;-76
2024/04/04 06:44:24;;;;;;;0.80;0.80;;;14.30;99.90;;;;;;10409002;28;20214;-77
2024/04/04 06:49:26;;;;;;;0.80;0.80;;;14.30;99.90;;;;;;10408481;28;20229;-77
2024/04/04 06:54:28;;;;;;;0.70;0.70;;;14.30;99.90;;;;;;10391032;28;20602;-76
2024/04/04 06:59:32;;;;;;;0.67;0.67;;;14.50;99.90;;;;;;10391071;28;20260;-76
2024/04/04 07:04:34;;;;;;;0.70;0.70;;;14.60;99.70;;;;;;10408215;28;20214;-76
2024/04/04 07:09:37;;;;;;;0.80;0.80;;;14.50;99.60;;;;;;10461811;22;20267;-81
2024/04/04 07:14:41;;;;;;;0.67;0.67;;;14.50;99.80;;;;;;10445401;28;20740;-81
2024/04/04 07:19:44;;;;;;;0.63;0.63;;;14.80;99.40;;;;;;10443148;28;20217;-81
2024/04/04 07:24:46;;;;;;;0.50;0.50;;;15.10;98.90;;;;;;10462702;28;20228;-81
2024/04/04 07:29:50;;;;;;;0.80;0.80;;;15.30;98.70;;;;;;10465824;28;20299;-81
2024/04/04 07:34:52;;;;;;;0.40;0.40;;;15.50;97.80;;;;;;10463334;28;20197;-81
2024/04/04 07:39:57;;;;;;;0.40;0.40;;;15.50;97.80;;;;;;10463568;28;20213;-82
2024/04/04 07:45:00;;;;;;;0.50;0.50;;;15.40;98.10;;;;;;10452893;28;20709;-81
2024/04/04 07:50:07;;;;;;;0.60;0.60;;;15.40;98.10;;;;;;10455058;28;20216;-81
2024/04/04 07:55:10;;;;;;;0.40;0.40;;;15.20;98.80;;;;;;10482106;28;20185;-81
2024/04/04 08:00:14;;;;;;;0.50;0.50;;;15.00;99.30;;;;;;10496840;28;20220;-81
2024/04/04 08:05:17;;;;;;;0.50;0.50;;;15.00;99.00;;;;;;10479804;28;20239;-81
2024/04/04 08:10:20;;;;;;;0.50;0.50;;;15.10;99.30;;;;;;10482370;28;20259;-81
2024/04/04 08:15:23;;;;;;;0.40;0.40;;;15.20;99.00;;;;;;10471402;28;20193;-81
2024/04/04 08:20:27;;;;;;;0.40;0.40;;;15.30;99.00;;;;;;10465000;28;20210;-81
2024/04/04 08:25:29;;;;;;;0.30;0.30;;;15.40;99.00;;;;;;10461336;28;20224;-81
2024/04/04 08:30:33;;;;;;;0.40;0.40;;;15.40;98.60;;;;;;10464010;28;20721;-81
2024/04/04 08:35:36;;;;;;;0.40;0.40;;;15.30;98.80;;;;;;10464428;28;20620;-81
2024/04/04 08:40:39;;;;;;;0.50;0.50;;;15.30;98.30;;;;;;10467153;28;20248;-81
2024/04/04 08:45:47;;;;;;;0.40;0.40;;;15.30;98.60;;;;;;10465493;28;20318;-80
2024/04/04 08:50:49;;;;;;;0.50;0.50;;;15.30;98.50;;;;;;10445524;28;20232;-80
2024/04/04 08:55:54;;;;;;;0.47;0.47;;;15.20;98.70;;;;;;10463045;28;20206;-80
2024/04/04 09:00:57;;;;;;;0.50;0.50;;;15.30;98.90;;;;;;10465325;28;20201;-80
2024/04/04 09:06:01;;;;;;;0.50;0.50;;;15.30;99.20;;;;;;10445095;28;20685;-80
2024/04/04 09:11:04;;;;;;;0.50;0.50;;;15.30;99.60;;;;;;10445867;28;20205;-80
2024/04/04 09:16:08;;;;;;;0.50;0.50;;;15.30;99.70;;;;;;10465440;28;20655;-80
2024/04/04 09:21:10;;;;;;;0.60;0.60;;;15.30;99.40;;;;;;10463836;28;20205;-79
2024/04/04 09:26:12;;;;;;;0.50;0.50;;;15.30;99.70;;;;;;10461667;28;20220;-81
2024/04/04 09:31:20;;;;;;;0.50;0.50;;;15.30;99.70;;;;;;10465204;28;20193;-80
2024/04/04 09:36:24;;;;;;;0.57;0.57;;;15.50;99.50;;;;;;10465041;28;20290;-81
2024/04/04 09:41:29;;;;;;;0.50;0.50;;;15.70;99.20;;;;;;10463303;28;20626;-81
2024/04/04 09:46:37;;;;;;;0.40;0.40;;;15.60;99.50;;;;;;10458649;28;20722;-81
2024/04/04 09:51:42;;;;;;;0.50;0.50;;;15.60;99.90;;;;;;10457792;28;20201;-81
2024/04/04 09:56:46;;;;;;;0.20;0.20;;;15.70;99.90;;;;;;10463335;28;20217;-81
2024/04/04 10:01:50;;;;;;;0.50;0.50;;;15.70;99.90;;;;;;10463481;28;20209;-82
2024/04/04 10:06:57;;;;;;;0.50;0.50;;;15.80;99.70;;;;;;10463882;28;20252;-82
2024/04/04 10:12:08;;;;;;;0.40;0.40;;;15.60;99.90;;;;;;10463357;28;20231;-81
2024/04/04 10:17:12;;;;;;;0.50;0.50;;;15.40;99.90;;;;;;10457932;28;20213;-81
2024/04/04 10:22:16;;;;;;;0.60;0.60;;;15.20;99.90;;;;;;10455240;28;20189;-82
2024/04/04 10:27:19;;;;;;;0.40;0.40;;;15.00;99.90;;;;;;10441455;28;20209;-81
2024/04/04 10:32:22;;;;;;;0.60;0.60;;;14.80;99.90;;;;;;10456713;28;20205;-81
2024/04/04 10:37:25;;;;;;;0.60;0.60;;;14.80;99.90;;;;;;10460155;28;20213;-82
2024/04/04 10:42:27;;;;;;;0.80;0.80;;;14.70;99.90;;;;;;10463443;28;20224;-81
2024/04/04 10:47:32;;;;;;;0.83;0.83;;;14.70;99.90;;;;;;10463638;28;20639;-82
2024/04/04 10:52:34;;;;;;;0.80;0.80;;;14.80;99.90;;;;;;10463620;28;20205;-81
2024/04/04 10:57:39;;;;;;;0.60;0.60;;;14.80;99.90;;;;;;10464390;28;20489;-82
2024/04/04 11:02:45;;;;;;;0.60;0.60;;;14.90;99.90;;;;;;10465746;28;20201;-81
2024/04/04 11:07:48;;;;;;;0.50;0.50;;;15.10;99.90;;;;;;10467217;28;20236;-82
2024/04/04 11:12:50;;;;;;;0.60;0.60;;;15.30;99.90;;;;;;10438704;28;20228;-81
2024/04/04 11:17:54;;;;;;;0.50;0.50;;;15.40;99.90;;;;;;10442172;28;20217;-81
2024/04/04 11:22:56;;;;;;;0.60;0.60;;;15.50;99.90;;;;;;10465310;28;20623;-81
2024/04/04 11:27:59;;;;;;;0.60;0.60;;;15.50;99.90;;;;;;10466365;28;20223;-82
2024/04/04 11:33:03;;;;;;;0.50;0.50;;;15.50;99.90;;;;;;10468856;28;20231;-81
2024/04/04 11:38:05;;;;;;;0.50;0.50;;;15.60;99.90;;;;;;10467951;28;20224;-81
2024/04/04 11:43:07;;;;;;;0.60;0.60;;;15.80;99.90;;;;;;10467899;28;20194;-81
2024/04/04 11:48:11;;;;;;;0.50;0.50;;;15.70;99.90;;;;;;10461170;28;20217;-81
2024/04/04 11:53:14;;;;;;;0.43;0.43;;;15.50;99.90;;;;;;10466650;28;20205;-82
2024/04/04 11:58:17;;;;;;;0.60;0.60;;;15.50;99.90;;;;;;10465404;28;20694;-81
2024/04/04 12:03:21;;;;;;;0.10;0.10;;;15.50;99.90;;;;;;10448118;28;20247;-81
2024/04/04 12:08:23;;;;;;;0.50;0.50;;;15.60;99.90;;;;;;10466297;28;20232;-81
2024/04/04 12:13:26;;;;;;;0.40;0.40;;;15.80;99.90;;;;;;10465333;28;20196;-80
2024/04/04 12:23:46;;;;;;;0.50;0.50;;;16.30;99.90;;;;;;10443787;28;20577;-81
2024/04/04 12:28:52;;;;;;;0.30;0.30;;;16.50;99.90;;;;;;10467100;28;20229;-81
2024/04/04 12:33:56;;;;;;;0.40;0.40;;;16.50;99.90;;;;;;10449284;28;20269;-81
2024/04/04 12:38:58;;;;;;;0.40;0.40;;;16.70;99.30;;;;;;10448036;28;20225;-81
2024/04/04 12:44:01;;;;;;;0.30;0.30;;;16.60;99.90;;;;;;10449275;28;20224;-80
2024/04/04 12:49:05;;;;;;;0.30;0.30;;;16.80;98.70;;;;;;10465838;28;20225;-81
2024/04/04 12:54:08;;;;;;;0.30;0.30;;;16.90;99.30;;;;;;10465512;28;20185;-81
2024/04/04 12:59:10;;;;;;;0.30;0.30;;;17.10;97.90;;;;;;10466488;28;20629;-81
2024/04/04 13:04:14;;;;;;;0.40;0.40;;;17.10;98.10;;;;;;10465306;28;20221;-81
2024/04/04 13:09:16;;;;;;;0.30;0.30;;;17.20;97.10;;;;;;10504643;22;20220;-78
2024/04/04 13:14:19;;;;;;;0.30;0.30;;;17.20;96.70;;;;;;10493896;28;20666;-79
2024/04/04 13:19:22;;;;;;;0.33;0.33;;;17.20;96.50;;;;;;10493839;28;20228;-80
2024/04/04 13:24:25;;;;;;;0.30;0.30;;;17.20;96.90;;;;;;10493631;28;20297;-80
2024/04/04 13:29:28;;;;;;;0.20;0.20;;;17.20;96.20;;;;;;10492768;28;20266;-78
2024/04/04 13:34:31;;;;;;;0.30;0.30;;;17.30;95.90;;;;;;10492957;28;20735;-78
2024/04/04 13:39:34;;;;;;;0.30;0.30;;;17.30;96.00;;;;;;10492190;28;20231;-77
2024/04/04 13:44:36;;;;;;;0.30;0.30;;;17.30;96.10;;;;;;10493136;28;20220;-77
2024/04/04 13:49:40;;;;;;;0.40;0.40;;;17.40;96.00;;;;;;10492035;28;20216;-80
2024/04/04 13:54:43;;;;;;;0.50;0.50;;;17.30;95.70;;;;;;10492569;28;20192;-77
2024/04/04 13:59:45;;;;;;;0.50;0.50;;;17.30;96.20;;;;;;10505981;28;20709;-80
2024/04/04 14:04:49;;;;;;;0.50;0.50;;;17.20;96.40;;;;;;10491948;28;20281;-79
2024/04/04 14:09:52;;;;;;;0.60;0.60;;;17.10;96.60;;;;;;10490391;28;20591;-80
2024/04/04 14:14:55;;;;;;;0.60;0.60;;;17.10;96.90;;;;;;10489881;28;20633;-78
2024/04/04 14:19:59;;;;;;;0.70;0.70;;;16.90;97.50;;;;;;10489854;28;20266;-80
2024/04/04 14:25:01;;;;;;;0.80;0.80;;;16.50;98.80;;;;;;10489794;28;20220;-79
2024/04/04 14:30:07;;;;;;;0.30;0.30;;;16.30;99.90;;;;;;10489060;28;20224;-80
2024/04/04 14:35:11;;;;;;;0.80;0.80;;;16.00;99.90;;;;;;10498814;28;20209;-77
2024/04/04 14:40:14;;;;;;;0.80;0.80;;;15.90;99.90;;;;;;10486637;28;20290;-80
2024/04/04 14:45:16;;;;;;;0.70;0.70;;;15.80;99.90;;;;;;10478489;28;20220;-80
2024/04/04 14:50:20;;;;;;;0.60;0.60;;;15.70;99.90;;;;;;10490898;28;20589;-78
2024/04/04 14:55:25;;;;;;;0.70;0.70;;;15.70;99.90;;;;;;10487446;28;20196;-79
2024/04/04 15:00:27;;;;;;;0.70;0.70;;;15.70;99.90;;;;;;10487792;28;20274;-78
2024/04/04 15:05:31;;;;;;;0.70;0.70;;;15.90;99.90;;;;;;10488241;28;20221;-81
2024/04/04 15:10:33;;;;;;;0.60;0.60;;;16.10;99.90;;;;;;10456587;28;1088469;-77
2024/04/04 15:15:36;;;;;;;0.60;0.60;;;16.30;99.90;;;;;;10490679;28;20484;-78
2024/04/04 15:20:40;;;;;;;0.67;0.67;;;16.40;99.90;;;;;;10484425;28;20797;-78
2024/04/04 15:25:43;;;;;;;0.60;0.60;;;16.40;99.20;;;;;;10484806;28;20697;-79
2024/04/04 15:30:45;;;;;;;0.60;0.60;;;16.40;98.80;;;;;;10451577;28;20228;-79
2024/04/04 15:35:49;;;;;;;0.50;0.50;;;16.30;98.90;;;;;;10490764;28;20217;-79
2024/04/04 15:40:52;;;;;;;0.50;0.50;;;16.20;98.20;;;;;;10486075;28;20281;-80
2024/04/04 15:45:54;;;;;;;0.50;0.50;;;16.20;98.50;;;;;;10483522;28;20228;-81
2024/04/04 15:50:58;;;;;;;0.50;0.50;;;16.20;97.90;;;;;;10496614;28;20229;-80
2024/04/04 15:56:00;;;;;;;0.30;0.30;;;16.00;98.40;;;;;;10491046;28;20200;-80
2024/04/04 16:01:03;;;;;;;0.50;0.50;;;16.10;98.40;;;;;;10489243;28;20231;-79
2024/04/04 16:06:07;;;;;;;0.60;0.60;;;16.00;98.70;;;;;;10495581;28;20220;-77
2024/04/04 16:11:09;;;;;;;0.60;0.60;;;16.00;99.20;;;;;;10496855;28;20228;-79
2024/04/04 16:16:12;;;;;;;0.50;0.50;;;16.00;99.10;;;;;;10497226;28;20743;-80
2024/04/04 16:21:16;;;;;;;0.50;0.50;;;16.10;98.80;;;;;;10478997;28;20583;-77
2024/04/04 16:26:18;;;;;;;0.43;0.43;;;16.20;98.50;;;;;;10478631;28;20240;-77
2024/04/04 16:31:21;;;;;;;0.50;0.50;;;16.30;98.20;;;;;;10498070;28;20224;-77
2024/04/04 16:36:25;;;;;;;0.50;0.50;;;16.20;98.20;;;;;;10508606;28;20662;-77
2024/04/04 16:41:27;;;;;;;0.60;0.60;;;16.10;98.50;;;;;;10511391;28;20207;-79
2024/04/04 16:46:30;;;;;;;0.70;0.70;;;16.00;98.60;;;;;;10489457;28;20232;-78
2024/04/04 16:51:33;;;;;;;0.60;0.60;;;15.90;98.90;;;;;;10495148;28;20204;-78
2024/04/04 16:56:36;;;;;;;0.60;0.60;;;16.00;99.10;;;;;;10494602;28;20192;-79
2024/04/04 17:01:38;;;;;;;0.60;0.60;;;16.00;99.30;;;;;;10496922;28;20196;-78
2024/04/04 17:06:45;;;;;;;0.70;0.70;;;15.90;99.40;;;;;;10496321;28;20317;-80
2024/04/04 17:11:48;;;;;;;0.70;0.70;;;15.70;99.80;;;;;;10496501;28;20197;-78
2024/04/04 17:16:50;;;;;;;0.70;0.70;;;15.50;99.90;;;;;;10494719;28;20786;-80
2024/04/04 17:21:54;;;;;;;0.70;0.70;;;15.40;99.90;;;;;;10472965;28;20223;-78
2024/04/04 17:26:56;;;;;;;0.40;0.40;;;15.30;99.90;;;;;;10493548;28;20220;-79
2024/04/04 17:31:59;;;;;;;0.83;0.83;;;15.20;99.90;;;;;;10497509;28;20212;-79
2024/04/04 17:37:03;;;;;;;0.80;0.80;;;15.20;99.90;;;;;;10471695;28;20638;-80
2024/04/04 17:42:06;;;;;;;0.67;0.67;;;15.20;99.90;;;;;;10493651;28;20208;-80
2024/04/04 17:47:08;;;;;;;0.80;0.80;;;15.20;99.90;;;;;;10492902;28;20235;-80
2024/04/04 17:52:12;;;;;;;0.80;0.80;;;15.10;99.90;;;;;;10502150;28;20192;-80
2024/04/04 17:57:14;;;;;;;0.60;0.60;;;15.10;99.90;;;;;;10493379;28;20208;-80
2024/04/04 18:02:16;;;;;;;0.30;0.30;;;15.00;99.90;;;;;;10492236;28;20235;-79
2024/04/04 18:07:20;;;;;;;0.80;0.80;;;14.80;99.90;;;;;;10492509;28;20657;-80
2024/04/04 18:12:23;;;;;;;1.07;1.07;;;14.70;99.90;;;;;;10492448;28;20204;-79
2024/04/04 18:17:25;;;;;;;1.30;1.30;;;14.60;99.90;;;;;;10491709;28;20224;-77
2024/04/04 18:22:29;;;;;;;1.80;1.80;;;14.50;99.90;;;;;;10486686;28;20594;-78
2024/04/04 18:27:31;;;;;;;1.30;1.30;;;14.30;99.90;;;;;;10490251;28;20224;-77
2024/04/04 18:32:34;;;;;;;2.10;2.10;;;14.10;99.90;;;;;;10491829;28;20226;-78
2024/04/04 18:37:39;;;;;;;2.20;2.20;;;13.90;99.90;;;;;;10496519;28;20300;-80
2024/04/04 18:42:41;;;;;;;1.70;1.70;;;13.80;99.90;;;;;;10497747;28;20270;-77
2024/04/04 18:47:44;;;;;;;2.50;2.50;;;13.60;99.90;;;;;;10484876;28;20227;-79
2024/04/04 18:52:48;;;;;;;1.90;1.90;;;13.50;99.90;;;;;;10486948;28;20209;-79
2024/04/04 18:57:51;;;;;;;2.10;2.10;;;13.40;99.90;;;;;;10488735;28;20279;-77
2024/04/04 19:02:53;;;;;;;1.60;1.60;;;13.30;99.90;;;;;;10489726;28;20590;-79
2024/04/04 19:07:58;;;;;;;0.70;0.70;;;13.30;99.90;;;;;;10489323;28;20228;-77
2024/04/04 19:13:00;;;;;;;1.57;1.57;;;13.30;99.90;;;;;;10489586;28;20616;-79
2024/04/04 19:18:02;;;;;;;1.40;1.40;;;13.30;99.90;;;;;;10473584;28;20219;-78
2024/04/04 19:23:06;;;;;;;1.43;1.43;;;13.40;99.90;;;;;;10484518;28;20224;-78
2024/04/04 19:28:09;;;;;;;1.37;1.37;;;13.50;99.90;;;;;;10489628;28;20239;-78
2024/04/04 19:33:11;;;;;;;1.20;1.20;;;13.50;99.90;;;;;;10472725;28;20192;-79
2024/04/04 19:38:15;;;;;;;1.40;1.40;;;13.60;99.90;;;;;;10497479;28;20545;-79
2024/04/04 19:43:18;;;;;;;1.00;1.00;;;13.70;99.90;;;;;;10499387;28;20985;-79
2024/04/04 19:48:20;;;;;;;1.10;1.10;;;13.80;99.90;;;;;;10493517;28;20646;-76
2024/04/04 19:53:24;;;;;;;1.00;1.00;;;13.80;99.90;;;;;;10476325;28;20834;-77
2024/04/04 19:58:27;;;;;;;1.10;1.10;;;13.90;99.90;;;;;;10493827;28;20212;-79
2024/04/04 20:03:30;;;;;;;0.90;0.90;;;14.00;99.90;;;;;;10493461;28;20620;-82
2024/04/04 20:08:34;;;;;;;1.10;1.10;;;14.00;99.90;;;;;;10494716;28;20221;-79
2024/04/04 20:13:37;;;;;;;0.80;0.80;;;14.10;99.90;;;;;;10495436;28;20215;-79
2024/04/04 20:18:41;;;;;;;1.30;1.30;;;14.10;99.90;;;;;;10495917;28;20220;-78
2024/04/04 20:23:45;;;;;;;1.00;1.00;;;14.10;99.90;;;;;;10495971;28;20230;-79
2024/04/04 20:28:47;;;;;;;1.00;1.00;;;14.10;99.90;;;;;;10495609;28;20220;-79
2024/04/04 20:33:50;;;;;;;1.10;1.10;;;14.00;99.90;;;;;;10491043;28;20220;-79
2024/04/04 20:38:54;;;;;;;0.80;0.80;;;14.00;99.90;;;;;;10495380;28;20220;-79
2024/04/04 20:43:57;;;;;;;1.10;1.10;;;14.00;99.90;;;;;;10496797;28;20250;-78
2024/04/04 20:48:59;;;;;;;1.00;1.00;;;13.90;99.90;;;;;;10490680;28;20220;-77
2024/04/04 20:54:03;;;;;;;0.97;0.97;;;14.00;99.90;;;;;;10496267;28;20344;-78
2024/04/04 20:59:05;;;;;;;0.80;0.80;;;14.00;99.90;;;;;;10496259;28;20229;-76
2024/04/04 21:04:08;;;;;;;1.00;1.00;;;14.00;99.90;;;;;;10476411;28;20196;-79
2024/04/04 21:09:12;;;;;;;0.80;0.80;;;14.10;99.90;;;;;;10493343;28;20710;-76
2024/04/04 21:14:14;;;;;;;0.80;0.80;;;14.20;99.90;;;;;;10494226;28;20189;-81
2024/04/04 21:19:17;;;;;;;1.00;1.00;;;14.20;99.90;;;;;;10494688;28;20640;-79
2024/04/04 21:24:21;;;;;;;1.07;1.07;;;14.20;99.90;;;;;;10491304;28;20205;-79
2024/04/04 21:29:23;;;;;;;0.80;0.80;;;14.20;99.90;;;;;;10495707;28;20648;-77
2024/04/04 21:34:26;;;;;;;0.70;0.70;;;14.30;99.90;;;;;;10494089;28;20204;-77
2024/04/04 21:39:30;;;;;;;0.70;0.70;;;14.30;99.90;;;;;;10488392;28;20228;-78
2024/04/04 21:44:33;;;;;;;0.50;0.50;;;14.30;99.90;;;;;;10492910;28;20704;-79
2024/04/04 21:49:35;;;;;;;0.63;0.63;;;14.30;99.90;;;;;;10493763;28;20241;-80
2024/04/04 21:54:39;;;;;;;0.70;0.70;;;14.40;99.90;;;;;;10509727;28;20654;-81
2024/04/04 21:59:41;;;;;;;0.60;0.60;;;14.40;99.90;;;;;;10479873;28;20223;-78
2024/04/04 22:04:44;;;;;;;0.50;0.50;;;14.40;99.90;;;;;;10473761;28;20200;-79
2024/04/04 22:09:47;;;;;;;0.40;0.40;;;14.40;99.90;;;;;;10493068;28;20236;-81
2024/04/04 22:14:50;;;;;;;0.57;0.57;;;14.40;99.90;;;;;;10495225;28;20231;-77
2024/04/04 22:19:52;;;;;;;0.57;0.57;;;14.40;99.90;;;;;;10485820;28;20224;-77
2024/04/04 22:24:56;;;;;;;0.70;0.70;;;14.40;99.90;;;;;;10473444;28;20270;-77
2024/04/04 22:29:58;;;;;;;0.50;0.50;;;14.50;99.90;;;;;;10490333;28;20224;-79
2024/04/04 22:35:00;;;;;;;0.60;0.60;;;14.50;99.90;;;;;;10490912;28;20203;-78
2024/04/04 22:40:06;;;;;;;0.60;0.60;;;14.50;99.90;;;;;;10490025;28;20224;-79
2024/04/04 22:45:08;;;;;;;0.50;0.50;;;14.60;99.90;;;;;;10491547;28;20211;-77
2024/04/04 22:50:11;;;;;;;0.70;0.70;;;14.60;99.90;;;;;;10499042;28;20232;-76
2024/04/04 22:55:15;;;;;;;0.60;0.60;;;14.60;99.90;;;;;;10489787;28;20693;-81
2024/04/04 23:00:17;;;;;;;0.60;0.60;;;14.70;99.90;;;;;;10489668;28;20223;-77
2024/04/04 23:05:20;;;;;;;0.70;0.70;;;14.70;99.90;;;;;;10485481;28;20583;-79
2024/04/04 23:10:25;;;;;;;0.60;0.60;;;14.70;99.90;;;;;;10482106;28;20228;-78
2024/04/04 23:15:27;;;;;;;0.60;0.60;;;14.70;99.90;;;;;;10489107;28;20204;-79
2024/04/04 23:20:29;;;;;;;0.60;0.60;;;14.70;99.90;;;;;;10471299;28;20701;-82
2024/04/04 23:25:33;;;;;;;0.70;0.70;;;14.70;99.90;;;;;;10490157;28;20200;-78
2024/04/04 23:30:35;;;;;;;0.63;0.63;;;14.60;99.90;;;;;;10489249;28;20220;-79
2024/04/04 23:35:38;;;;;;;0.50;0.50;;;14.60;99.90;;;;;;10489584;28;20192;-80
2024/04/04 23:40:41;;;;;;;0.50;0.50;;;14.70;99.90;;;;;;10489922;28;20708;-79
2024/04/04 23:45:44;;;;;;;0.53;0.53;;;14.70;99.90;;;;;;10488570;28;20201;-79
2024/04/04 23:50:54;;;;;;;0.50;0.50;;;14.80;99.90;;;;;;10484237;28;20240;-82
2024/04/04 23:55:57;;;;;;;0.50;0.50;;;14.80;99.90;;;;;;10490100;28;20200;-80
